createdAt,value
2022-09-10T00:01:23.471Z,13.85
2022-09-10T00:03:50.426Z,14.45
2022-09-10T00:06:18.781Z,16.52
2022-09-10T00:08:46.603Z,15.80
2022-09-10T00:11:18.002Z,15.02
2022-09-10T00:13:47.446Z,14.15
2022-09-10T00:16:15.073Z,16.08
2022-09-10T00:18:42.830Z,17.48
2022-09-10T00:21:12.543Z,16.35
2022-09-10T00:23:40.071Z,17.08
2022-09-10T00:26:23.522Z,17.73
2022-09-10T00:28:51.935Z,15.30
2022-09-10T00:31:19.494Z,17.75
2022-09-10T00:33:46.495Z,15.02
2022-09-10T00:36:20.287Z,15.32
2022-09-10T00:38:47.604Z,15.23
2022-09-10T00:41:14.874Z,16.27
2022-09-10T00:43:52.997Z,15.25
2022-09-10T00:46:28.588Z,14.65
2022-09-10T00:48:56.938Z,13.40
2022-09-10T00:51:26.318Z,13.32
2022-09-10T00:53:53.814Z,13.02
2022-09-10T00:56:20.788Z,15.15
2022-09-10T00:58:48.416Z,13.25
2022-09-10T01:01:15.411Z,14.05
2022-09-10T01:03:43.648Z,16.33
2022-09-10T01:06:10.703Z,13.85
2022-09-10T01:08:37.911Z,14.32
2022-09-10T01:11:16.965Z,14.15
2022-09-10T01:14:13.906Z,13.70
2022-09-10T01:17:03.537Z,13.20
2022-09-10T01:19:38.331Z,14.73
2022-09-10T01:22:27.349Z,14.13
2022-09-10T01:25:05.245Z,15.82
2022-09-10T01:27:40.140Z,14.63
2022-09-10T01:30:27.735Z,15.00
2022-09-10T01:32:57.059Z,15.15
2022-09-10T01:35:30.263Z,15.45
2022-09-10T01:38:00.165Z,15.75
2022-09-10T01:40:30.236Z,16.98
2022-09-10T01:43:08.783Z,17.35
2022-09-10T01:45:55.721Z,15.68
2022-09-10T01:48:47.977Z,15.18
2022-09-10T01:51:54.375Z,15.63
2022-09-10T01:54:35.350Z,14.30
2022-09-10T01:57:20.623Z,16.00
2022-09-10T01:59:54.445Z,14.85
2022-09-10T02:02:22.775Z,17.75
2022-09-10T02:04:50.538Z,15.32
2022-09-10T02:07:18.999Z,14.93
2022-09-10T02:09:46.177Z,15.38
2022-09-10T02:12:19.259Z,17.08
2022-09-10T02:14:54.362Z,14.07
2022-09-10T02:17:46.735Z,17.73
2022-09-10T02:20:14.550Z,13.98
2022-09-10T02:22:44.684Z,14.52
2022-09-10T02:25:12.431Z,13.93
2022-09-10T02:27:39.438Z,14.82
2022-09-10T02:30:07.864Z,14.55
2022-09-10T02:32:34.845Z,16.15
2022-09-10T02:35:01.916Z,16.38
2022-09-10T02:37:29.402Z,16.40
2022-09-10T02:39:56.447Z,16.27
2022-09-10T02:42:25.320Z,16.50
2022-09-10T02:44:53.275Z,15.73
2022-09-10T02:47:20.322Z,15.00
2022-09-10T02:49:47.394Z,16.50
2022-09-10T02:52:14.879Z,16.30
2022-09-10T02:54:42.268Z,14.65
2022-09-10T02:57:12.329Z,15.07
2022-09-10T02:59:39.290Z,16.02
2022-09-10T03:02:06.327Z,15.55
2022-09-10T03:04:33.307Z,16.67
2022-09-10T03:07:00.221Z,16.35
2022-09-10T03:09:28.958Z,17.75
2022-09-10T03:11:56.191Z,14.63
2022-09-10T03:14:24.730Z,20.17
2022-09-10T03:16:52.162Z,19.13
2022-09-10T03:19:19.947Z,19.27
2022-09-10T03:21:47.639Z,18.10
2022-09-10T03:24:15.513Z,17.52
2022-09-10T03:26:44.511Z,17.92
2022-09-10T03:29:12.500Z,16.88
2022-09-10T03:31:40.419Z,17.90
2022-09-10T03:34:08.843Z,17.85
2022-09-10T03:36:35.843Z,17.20
2022-09-10T03:39:05.178Z,17.05
2022-09-10T03:41:32.326Z,17.30
2022-09-10T03:44:00.044Z,17.60
2022-09-10T03:46:27.480Z,18.02
2022-09-10T03:48:57.199Z,17.83
2022-09-10T03:51:27.481Z,17.50
2022-09-10T03:53:55.449Z,18.70
2022-09-10T03:56:22.527Z,18.02
2022-09-10T03:58:49.597Z,17.95
2022-09-10T04:01:17.211Z,17.23
2022-09-10T04:03:47.256Z,16.40
2022-09-10T04:06:15.317Z,17.30
2022-09-10T04:08:43.672Z,18.35
2022-09-10T04:11:13.819Z,18.77
2022-09-10T04:13:40.966Z,18.98
2022-09-10T04:16:09.883Z,16.13
2022-09-10T04:18:37.346Z,19.15
2022-09-10T04:21:04.492Z,16.05
2022-09-10T04:23:32.864Z,17.98
2022-09-10T04:26:01.538Z,16.58
2022-09-10T04:28:28.623Z,18.67
2022-09-10T04:30:55.903Z,16.27
2022-09-10T04:33:25.235Z,19.02
2022-09-10T04:35:52.918Z,16.25
2022-09-10T04:38:20.910Z,15.85
2022-09-10T04:40:48.472Z,15.68
2022-09-10T04:43:15.899Z,17.95
2022-09-10T04:45:43.726Z,18.13
2022-09-10T04:48:10.879Z,17.02
2022-09-10T04:50:54.031Z,15.38
2022-09-10T04:53:27.836Z,17.85
2022-09-10T04:55:56.814Z,16.48
2022-09-10T04:58:23.774Z,18.08
2022-09-10T05:00:51.358Z,16.05
2022-09-10T05:03:19.600Z,19.08
2022-09-10T05:05:48.147Z,16.60
2022-09-10T05:08:15.319Z,17.55
2022-09-10T05:10:49.370Z,16.48
2022-09-10T05:13:16.489Z,17.63
2022-09-10T05:15:43.485Z,17.25
2022-09-10T05:18:11.050Z,19.95
2022-09-10T05:20:38.687Z,19.80
2022-09-10T05:23:05.671Z,19.42
2022-09-10T05:25:34.571Z,17.75
2022-09-10T05:28:01.848Z,19.35
2022-09-10T05:30:32.959Z,20.38
2022-09-10T05:33:01.108Z,18.15
2022-09-10T05:35:30.356Z,18.70
2022-09-10T05:37:58.521Z,18.90
2022-09-10T05:40:25.707Z,17.60
2022-09-10T05:42:54.344Z,16.75
2022-09-10T05:45:23.889Z,20.88
2022-09-10T05:47:51.679Z,17.13
2022-09-10T05:50:22.075Z,20.63
2022-09-10T05:52:49.750Z,17.50
2022-09-10T05:55:17.367Z,20.38
2022-09-10T05:57:44.249Z,19.08
2022-09-10T06:00:15.710Z,18.75
2022-09-10T06:02:50.495Z,18.05
2022-09-10T06:05:27.955Z,19.13
2022-09-10T06:07:56.622Z,17.70
2022-09-10T06:10:23.724Z,18.45
2022-09-10T06:12:52.126Z,18.13
2022-09-10T06:15:20.748Z,16.45
2022-09-10T06:17:48.713Z,19.17
2022-09-10T06:20:16.688Z,18.08
2022-09-10T06:22:45.668Z,20.45
2022-09-10T06:25:12.850Z,19.75
2022-09-10T06:27:41.103Z,18.65
2022-09-10T06:30:08.394Z,16.90
2022-09-10T06:32:39.369Z,17.90
2022-09-10T06:35:09.354Z,16.65
2022-09-10T06:37:37.329Z,14.90
2022-09-10T06:40:07.518Z,16.30
2022-09-10T06:42:34.965Z,15.48
2022-09-10T06:45:13.936Z,16.02
2022-09-10T06:48:32.736Z,15.75
2022-09-10T06:50:56.657Z,16.00
2022-09-10T06:53:28.761Z,17.08
2022-09-10T06:55:56.451Z,14.52
2022-09-10T06:58:24.745Z,15.30
2022-09-10T07:00:52.495Z,15.88
2022-09-10T07:03:21.380Z,18.83
2022-09-10T07:05:49.143Z,15.48
2022-09-10T07:08:17.442Z,14.75
2022-09-10T07:10:47.043Z,16.17
2022-09-10T07:13:15.008Z,18.25
2022-09-10T07:15:49.903Z,14.88
2022-09-10T07:18:17.955Z,16.92
2022-09-10T07:20:45.575Z,16.15
2022-09-10T07:23:13.730Z,15.77
2022-09-10T07:25:42.175Z,16.58
2022-09-10T07:28:17.132Z,15.95
2022-09-10T07:30:47.810Z,17.63
2022-09-10T07:33:16.143Z,15.45
2022-09-10T07:35:44.994Z,16.92
2022-09-10T07:38:17.293Z,16.85
2022-09-10T07:40:46.592Z,17.02
2022-09-10T07:43:13.732Z,16.02
2022-09-10T07:45:42.043Z,16.98
2022-09-10T07:48:12.340Z,16.92
2022-09-10T07:50:40.653Z,18.63
2022-09-10T07:53:08.307Z,20.75
2022-09-10T07:55:37.197Z,17.95
2022-09-10T07:58:04.920Z,16.92
2022-09-10T08:00:32.121Z,17.65
2022-09-10T08:03:04.933Z,16.25
2022-09-10T08:05:32.218Z,15.77
2022-09-10T08:08:01.105Z,14.98
2022-09-10T08:10:29.131Z,19.55
2022-09-10T08:12:58.897Z,15.18
2022-09-10T08:15:26.156Z,14.30
2022-09-10T08:17:53.463Z,13.82
2022-09-10T08:20:25.298Z,12.65
2022-09-10T08:22:53.018Z,12.18
2022-09-10T08:25:21.047Z,15.23
2022-09-10T08:27:48.112Z,12.60
2022-09-10T08:30:15.748Z,15.45
2022-09-10T08:32:43.040Z,14.43
2022-09-10T08:35:11.779Z,14.18
2022-09-10T08:37:38.746Z,14.07
2022-09-10T08:40:06.246Z,14.85
2022-09-10T08:42:40.018Z,13.52
2022-09-10T08:45:18.856Z,15.00
2022-09-10T08:47:56.982Z,14.50
2022-09-10T08:50:49.390Z,14.70
2022-09-10T08:53:23.778Z,14.32
2022-09-10T08:55:51.055Z,14.95
2022-09-10T08:58:23.319Z,17.15
2022-09-10T09:00:58.167Z,13.57
2022-09-10T09:03:43.065Z,15.18
2022-09-10T09:06:35.940Z,14.45
2022-09-10T09:09:03.844Z,17.83
2022-09-10T09:11:49.554Z,14.68
2022-09-10T09:14:50.054Z,15.65
2022-09-10T09:20:15.258Z,18.08
2022-09-10T09:23:02.510Z,15.60
2022-09-10T09:25:56.638Z,15.15
2022-09-10T09:28:45.792Z,16.10
2022-09-10T09:31:33.099Z,15.75
2022-09-10T09:34:33.634Z,16.17
2022-09-10T09:37:03.485Z,16.63
2022-09-10T09:39:53.412Z,15.10
2022-09-10T09:42:45.954Z,14.85
2022-09-10T09:45:28.343Z,13.30
2022-09-10T09:47:55.971Z,12.95
2022-09-10T09:50:24.042Z,12.63
2022-09-10T09:52:54.134Z,14.10
2022-09-10T09:55:31.515Z,13.77
2022-09-10T09:58:21.306Z,14.75
2022-09-10T10:01:03.398Z,14.73
2022-09-10T10:03:53.509Z,11.07
2022-09-10T10:06:34.945Z,13.73
2022-09-10T10:09:42.575Z,14.60
2022-09-10T10:12:20.434Z,15.27
2022-09-10T10:14:47.569Z,11.77
2022-09-10T10:17:35.574Z,12.73
2022-09-10T10:20:07.342Z,9.50
2022-09-10T10:22:35.235Z,13.85
2022-09-10T10:25:03.318Z,10.82
2022-09-10T10:27:38.326Z,11.00
2022-09-10T10:30:07.384Z,11.27
2022-09-10T10:32:34.804Z,11.57
